Time;durP1;ratioP1;P1;durP2;ratioP2;P2;SDS_P1;SDS_P2;PMS_P1;PMS_P2;Temp;Humidity;BMP_temperature;BMP_pressure;BME280_temperature;BME280_humidity;BME280_pressure;Samples;Min_cycle;Max_cycle;Signal;HPM_P1;HPM_P2
2024/01/18 00:00:06;;;;;;;0.30;0.30;;;;;;;1.08;92.36;99540.88;5076928;27;96764;-27
2024/01/18 00:02:31;;;;;;;0.65;0.55;;;;;;;1.06;92.20;99540.91;5095252;27;97484;-27
2024/01/18 00:04:57;;;;;;;0.28;0.28;;;;;;;1.00;92.39;99541.19;5094558;27;99131;-28
2024/01/18 00:07:22;;;;;;;0.65;0.60;;;;;;;0.99;92.13;99542.13;5094761;27;96592;-27
2024/01/18 00:09:47;;;;;;;0.68;0.38;;;;;;;0.96;92.32;99545.78;5094815;27;96746;-27
2024/01/18 00:12:13;;;;;;;1.02;0.32;;;;;;;0.92;92.36;99556.66;5095085;27;100236;-27
2024/01/18 00:14:38;;;;;;;0.40;0.40;;;;;;;0.92;92.69;99562.84;5094428;27;98980;-26
2024/01/18 00:17:03;;;;;;;0.50;0.50;;;;;;;0.89;92.47;99557.66;5094997;27;96450;-26
2024/01/18 00:19:29;;;;;;;0.17;0.17;;;;;;;0.88;92.70;99563.91;5094886;27;96820;-26
2024/01/18 00:21:54;;;;;;;0.82;0.63;;;;;;;0.82;92.16;99567.69;5094486;27;99358;-27
2024/01/18 00:24:20;;;;;;;0.05;0.05;;;;;;;0.85;92.22;99586.22;5095036;27;97309;-27
2024/01/18 00:26:45;;;;;;;0.52;0.52;;;;;;;0.80;92.45;99587.34;5094540;27;96480;-27
2024/01/18 00:29:10;;;;;;;0.47;0.47;;;;;;;0.81;92.03;99599.72;5094526;27;96712;-27
2024/01/18 00:31:36;;;;;;;2.65;0.68;;;;;;;0.78;91.99;99595.41;5093968;27;97298;-27
2024/01/18 00:34:01;;;;;;;0.45;0.43;;;;;;;0.81;92.16;99597.97;5094669;27;97848;-27
2024/01/18 00:36:27;;;;;;;0.60;0.35;;;;;;;0.75;91.97;99595.53;5094788;27;96413;-26
2024/01/18 00:38:52;;;;;;;0.28;0.28;;;;;;;0.72;92.33;99593.00;5094625;27;96771;-27
2024/01/18 00:41:18;;;;;;;1.65;1.48;;;;;;;0.77;92.18;99598.16;5094133;27;99403;-27
2024/01/18 00:43:43;;;;;;;1.20;0.98;;;;;;;0.71;92.21;99590.41;5093900;27;99140;-28
2024/01/18 00:46:08;;;;;;;0.50;0.50;;;;;;;0.72;92.05;99605.47;5094777;27;96473;-26
2024/01/18 00:48:34;;;;;;;0.10;0.10;;;;;;;0.65;92.31;99596.84;5094996;27;96450;-27
2024/01/18 00:50:59;;;;;;;0.57;0.35;;;;;;;0.65;92.23;99611.97;5093684;27;99191;-28
2024/01/18 00:53:24;;;;;;;0.00;0.00;;;;;;;0.63;92.54;99612.91;5093793;27;99479;-27
2024/01/18 00:55:50;;;;;;;0.50;0.47;;;;;;;0.65;92.50;99610.19;5093659;27;96486;-27
2024/01/18 00:58:15;;;;;;;1.38;0.73;;;;;;;0.62;91.81;99610.28;5093843;27;96827;-27
2024/01/18 01:00:40;;;;;;;0.75;0.52;;;;;;;0.62;91.89;99613.84;5093900;27;99694;-27
2024/01/18 01:03:06;;;;;;;0.65;0.65;;;;;;;0.61;91.86;99616.56;5093167;27;103894;-27
2024/01/18 01:05:31;;;;;;;0.10;0.10;;;;;;;0.56;91.89;99629.19;5093849;27;96721;-27
2024/01/18 01:07:56;;;;;;;0.28;0.25;;;;;;;0.53;91.95;99621.34;5094041;27;99945;-27
2024/01/18 01:10:22;;;;;;;0.22;0.22;;;;;;;0.56;91.23;99622.06;5094249;27;97812;-29
2024/01/18 01:12:47;;;;;;;0.38;0.38;;;;;;;0.47;91.51;99618.91;5094566;27;98312;-26
2024/01/18 01:15:12;;;;;;;0.00;0.00;;;;;;;0.46;91.75;99633.16;5093804;27;96553;-27
2024/01/18 01:17:38;;;;;;;0.88;0.75;;;;;;;0.54;91.04;99633.72;5094003;27;96626;-27
2024/01/18 01:20:05;;;;;;;0.28;0.28;;;;;;;0.38;91.38;99628.13;5093537;27;97556;-27
2024/01/18 01:22:30;;;;;;;0.25;0.25;;;;;;;0.40;91.22;99623.59;5074992;27;100574;-27
2024/01/18 01:24:55;;;;;;;0.13;0.10;;;;;;;0.41;91.65;99636.03;5093894;27;99389;-26
2024/01/18 01:27:20;;;;;;;0.15;0.15;;;;;;;0.34;91.12;99632.72;5093864;27;96732;-26
2024/01/18 01:29:46;;;;;;;0.52;0.52;;;;;;;0.38;90.81;99645.00;5093734;27;100416;-26
2024/01/18 01:32:11;;;;;;;0.20;0.20;;;;;;;0.27;90.37;99636.56;5093411;27;99233;-27
2024/01/18 01:34:36;;;;;;;2.13;0.73;;;;;;;0.30;90.78;99639.09;5093614;27;96615;-28
2024/01/18 01:37:02;;;;;;;1.48;1.05;;;;;;;0.27;90.94;99644.53;5093951;27;96820;-27
2024/01/18 01:39:28;;;;;;;0.38;0.38;;;;;;;0.25;90.92;99651.72;5093293;27;98828;-28
2024/01/18 01:41:53;;;;;;;0.45;0.45;;;;;;;0.15;90.97;99632.56;5074636;27;101082;-27
2024/01/18 01:44:19;;;;;;;0.60;0.60;;;;;;;0.16;90.66;99646.75;5093090;27;96700;-27
2024/01/18 01:46:44;;;;;;;0.63;0.43;;;;;;;0.15;90.52;99642.34;5093421;27;97391;-27
2024/01/18 01:49:10;;;;;;;0.60;0.60;;;;;;;0.13;90.83;99654.84;5093555;27;97362;-27
2024/01/18 01:51:51;;;;;;;0.28;0.28;;;;;;;0.09;90.78;99653.22;5074348;27;98972;-27
2024/01/18 01:54:19;;;;;;;1.00;0.47;;;;;;;-0.01;90.87;99644.72;5074656;27;96571;-27
2024/01/18 01:56:46;;;;;;;0.43;0.28;;;;;;;0.02;91.12;99655.25;5074633;27;96811;-27
2024/01/18 01:59:12;;;;;;;0.20;0.20;;;;;;;-0.06;91.03;99660.88;5074496;27;100862;-28
2024/01/18 02:01:39;;;;;;;0.57;0.57;;;;;;;-0.08;91.34;99669.84;5074911;27;100715;-28
2024/01/18 02:04:05;;;;;;;0.17;0.13;;;;;;;-0.10;91.55;99663.69;5074684;27;96752;-27
2024/01/18 02:06:33;;;;;;;0.45;0.40;;;;;;;-0.18;91.62;99663.97;5093105;27;97951;-27
2024/01/18 02:09:01;;;;;;;5.60;0.93;;;;;;;-0.19;91.27;99674.66;5073997;27;100929;-28
2024/01/18 02:11:27;;;;;;;1.73;1.30;;;;;;;-0.17;91.03;99662.19;5074327;27;101226;-27
2024/01/18 02:13:53;;;;;;;1.23;0.68;;;;;;;-0.13;91.39;99663.81;5093291;27;96466;-27
2024/01/18 02:16:18;;;;;;;0.30;0.30;;;;;;;-0.12;90.96;99671.75;5077905;27;96869;-26
2024/01/18 02:18:44;;;;;;;0.65;0.50;;;;;;;-0.18;90.69;99668.44;5096825;27;97075;-27
2024/01/18 02:21:09;;;;;;;0.55;0.55;;;;;;;-0.13;90.92;99672.66;5096469;27;99353;-27
2024/01/18 02:23:38;;;;;;;0.03;0.03;;;;;;;-0.19;90.75;99682.66;5096858;27;96585;-27
2024/01/18 02:26:03;;;;;;;0.77;0.77;;;;;;;-0.22;90.19;99691.63;5078382;27;96848;-28
2024/01/18 02:28:29;;;;;;;0.20;0.20;;;;;;;-0.13;90.72;99701.94;5096596;27;97313;-27
2024/01/18 02:30:54;;;;;;;0.40;0.28;;;;;;;-0.12;90.37;99690.38;5078202;27;102362;-27
2024/01/18 02:33:20;;;;;;;0.10;0.03;;;;;;;-0.10;90.54;99691.16;5096006;27;96605;-27
2024/01/18 02:35:46;;;;;;;0.00;0.00;;;;;;;0.03;90.74;99702.25;5096607;27;96703;-27
2024/01/18 02:38:11;;;;;;;0.10;0.10;;;;;;;0.02;90.15;99699.63;5096655;27;97432;-27
2024/01/18 02:40:39;;;;;;;0.68;0.63;;;;;;;0.03;90.35;99693.41;5096015;27;99204;-27
2024/01/18 02:43:05;;;;;;;0.13;0.08;;;;;;;0.09;90.65;99694.03;5077897;27;96592;-28
2024/01/18 02:45:30;;;;;;;0.30;0.20;;;;;;;0.11;90.13;99700.16;5096290;27;96709;-27
2024/01/18 02:47:56;;;;;;;0.10;0.10;;;;;;;0.02;90.31;99683.66;5096410;27;97838;-27
2024/01/18 02:50:21;;;;;;;0.00;0.00;;;;;;;0.05;90.77;99694.19;5096292;27;101452;-28
2024/01/18 02:52:46;;;;;;;0.10;0.10;;;;;;;0.08;91.11;99697.63;5095694;27;96581;-27
2024/01/18 02:55:12;;;;;;;0.10;0.10;;;;;;;0.10;90.62;99689.59;5096125;27;96768;-28
2024/01/18 02:57:37;;;;;;;0.70;0.65;;;;;;;0.17;91.18;99697.28;5095433;27;99628;-27
2024/01/18 03:00:03;;;;;;;0.00;0.00;;;;;;;0.17;90.81;99696.41;5095878;27;99163;-28
2024/01/18 03:02:29;;;;;;;0.10;0.10;;;;;;;0.18;90.97;99690.16;5096212;27;96516;-27
2024/01/18 03:04:54;;;;;;;0.03;0.03;;;;;;;0.18;91.03;99691.00;5095269;27;96894;-27
2024/01/18 03:07:19;;;;;;;0.00;0.00;;;;;;;0.05;91.25;99681.78;5095690;27;99964;-26
2024/01/18 03:09:45;;;;;;;0.10;0.10;;;;;;;0.10;91.70;99689.59;5096073;27;97454;-27
2024/01/18 03:12:10;;;;;;;0.43;0.38;;;;;;;0.05;91.41;99697.75;5096035;27;96497;-27
2024/01/18 03:14:35;;;;;;;0.10;0.10;;;;;;;0.15;91.55;99692.94;5096507;27;96757;-28
2024/01/18 03:17:01;;;;;;;0.63;0.32;;;;;;;0.20;91.57;99697.16;5095878;27;104829;-27
2024/01/18 03:19:26;;;;;;;0.00;0.00;;;;;;;0.17;90.98;99691.97;5095854;27;97777;-27
2024/01/18 03:21:51;;;;;;;0.10;0.10;;;;;;;0.12;90.93;99682.38;5095290;27;99275;-27
2024/01/18 03:24:16;;;;;;;0.20;0.20;;;;;;;0.13;91.00;99694.78;5095541;27;100877;-26
2024/01/18 03:26:42;;;;;;;0.00;0.00;;;;;;;0.13;90.83;99711.63;5094973;27;99433;-27
2024/01/18 03:29:10;;;;;;;0.15;0.10;;;;;;;0.03;91.04;99701.38;5095434;27;98812;-27
2024/01/18 03:31:36;;;;;;;0.10;0.10;;;;;;;0.09;91.12;99714.47;5095562;27;96599;-27
2024/01/18 03:34:01;;;;;;;0.10;0.10;;;;;;;0.09;91.14;99730.44;5095758;27;96755;-27
2024/01/18 03:36:26;;;;;;;0.05;0.05;;;;;;;0.07;90.88;99717.19;5095223;27;99311;-27
2024/01/18 03:38:52;;;;;;;0.00;0.00;;;;;;;0.08;90.79;99718.91;5095380;27;99223;-27
2024/01/18 03:41:17;;;;;;;0.20;0.20;;;;;;;0.07;90.94;99722.53;5076851;27;97107;-27
2024/01/18 03:43:43;;;;;;;0.00;0.00;;;;;;;0.06;90.91;99725.22;5095656;27;96528;-26
2024/01/18 03:46:15;;;;;;;0.00;0.00;;;;;;;-0.02;90.57;99715.72;5094930;27;97247;-27
2024/01/18 03:48:41;;;;;;;0.10;0.10;;;;;;;-0.01;90.10;99719.25;5076758;27;100966;-27
2024/01/18 03:51:06;;;;;;;0.00;0.00;;;;;;;-0.08;90.56;99715.06;5095177;27;96430;-28
2024/01/18 03:53:32;;;;;;;0.10;0.10;;;;;;;-0.10;90.80;99723.09;5095142;27;96455;-27
2024/01/18 03:55:57;;;;;;;0.00;0.00;;;;;;;-0.17;91.02;99715.41;5095405;27;97975;-28
2024/01/18 03:58:22;;;;;;;0.00;0.00;;;;;;;-0.19;90.79;99711.94;5094835;27;105446;-27
2024/01/18 04:00:48;;;;;;;0.10;0.10;;;;;;;-0.16;90.51;99719.81;5094942;27;96508;-27
2024/01/18 04:03:13;;;;;;;0.22;0.10;;;;;;;-0.25;90.36;99711.22;5095886;27;96681;-28
2024/01/18 04:05:38;;;;;;;0.15;0.15;;;;;;;-0.30;90.25;99729.16;5094396;27;97478;-27
2024/01/18 04:08:04;;;;;;;0.00;0.00;;;;;;;-0.32;90.08;99727.47;5094756;27;97881;-27
2024/01/18 04:10:29;;;;;;;0.00;0.00;;;;;;;-0.34;90.51;99737.28;5094583;27;96534;-27
2024/01/18 04:12:55;;;;;;;0.00;0.00;;;;;;;-0.39;90.92;99740.09;5094757;27;96782;-27
2024/01/18 04:15:20;;;;;;;0.38;0.13;;;;;;;-0.38;90.94;99743.63;5094997;27;98124;-27
2024/01/18 04:17:45;;;;;;;0.08;0.03;;;;;;;-0.40;90.81;99740.19;5094635;27;105917;-27
2024/01/18 04:20:15;;;;;;;0.22;0.22;;;;;;;-0.41;90.64;99736.63;5095037;27;96749;-27
2024/01/18 04:22:40;;;;;;;0.10;0.10;;;;;;;-0.51;90.57;99729.91;5094436;27;96893;-27
2024/01/18 04:25:06;;;;;;;0.08;0.08;;;;;;;-0.48;90.64;99741.31;5094784;27;98076;-27
2024/01/18 04:27:31;;;;;;;0.03;0.03;;;;;;;-0.52;90.33;99749.44;5094915;27;99128;-27
2024/01/18 04:29:57;;;;;;;0.00;0.00;;;;;;;-0.56;89.85;99735.38;5094737;27;96435;-27
2024/01/18 04:32:22;;;;;;;0.00;0.00;;;;;;;-0.53;90.49;99750.34;5094875;27;96754;-26
2024/01/18 04:34:48;;;;;;;0.10;0.10;;;;;;;-0.59;90.89;99751.44;5093878;27;99609;-27
2024/01/18 04:37:13;;;;;;;0.00;0.00;;;;;;;-0.57;90.60;99759.34;5093248;27;99125;-27
2024/01/18 04:39:38;;;;;;;0.00;0.00;;;;;;;-0.68;90.76;99749.94;5094545;27;97120;-27
2024/01/18 04:42:04;;;;;;;0.00;0.00;;;;;;;-0.68;90.68;99762.38;5094529;27;96759;-27
2024/01/18 04:44:29;;;;;;;0.22;0.15;;;;;;;-0.67;90.52;99778.28;5094193;27;98990;-27
2024/01/18 04:46:55;;;;;;;0.30;0.30;;;;;;;-0.72;90.22;99760.72;5094223;27;99889;-27
2024/01/18 04:49:20;;;;;;;0.00;0.00;;;;;;;-0.71;89.77;99778.44;5094147;27;96481;-27
2024/01/18 04:51:45;;;;;;;0.10;0.08;;;;;;;-0.78;90.02;99769.78;5094115;27;101441;-27
2024/01/18 04:54:11;;;;;;;0.00;0.00;;;;;;;-0.74;89.90;99776.75;5094231;27;99233;-27
2024/01/18 04:56:37;;;;;;;0.10;0.10;;;;;;;-0.77;90.03;99778.63;5094128;27;98801;-27
2024/01/18 04:59:03;;;;;;;0.00;0.00;;;;;;;-0.92;90.20;99770.22;5074980;27;97513;-27
2024/01/18 05:01:28;;;;;;;0.00;0.00;;;;;;;-0.87;90.61;99778.91;5094295;27;96517;-29
2024/01/18 05:03:54;;;;;;;0.00;0.00;;;;;;;-0.90;90.87;99781.69;5093771;27;99149;-27
2024/01/18 05:06:19;;;;;;;0.00;0.00;;;;;;;-0.93;90.55;99783.56;5093315;27;99354;-26
2024/01/18 05:08:45;;;;;;;0.00;0.00;;;;;;;-0.92;90.64;99783.53;5094065;27;96630;-27
2024/01/18 05:11:10;;;;;;;0.00;0.00;;;;;;;-0.98;90.38;99782.84;5094249;27;96763;-27
2024/01/18 05:13:35;;;;;;;0.00;0.00;;;;;;;-0.92;90.45;99794.16;5093726;27;102620;-27
2024/01/18 05:16:01;;;;;;;0.10;0.10;;;;;;;-0.99;90.05;99781.13;5094314;27;98312;-28
2024/01/18 05:18:27;;;;;;;0.00;0.00;;;;;;;-1.02;90.42;99803.34;5075365;27;96481;-27
2024/01/18 05:20:52;;;;;;;0.28;0.28;;;;;;;-1.04;90.61;99793.69;5093599;27;96456;-27
2024/01/18 05:23:18;;;;;;;0.95;0.40;;;;;;;-1.07;90.45;99799.97;5093225;27;98290;-27
2024/01/18 05:25:43;;;;;;;0.00;0.00;;;;;;;-1.08;90.78;99806.19;5093840;27;97204;-27
2024/01/18 05:28:09;;;;;;;0.10;0.05;;;;;;;-1.03;90.23;99816.66;5093691;27;96505;-27
2024/01/18 05:30:35;;;;;;;0.47;0.22;;;;;;;-1.13;90.38;99822.25;5075066;27;96908;-27
2024/01/18 05:33:00;;;;;;;0.00;0.00;;;;;;;-1.24;90.90;99819.06;5093271;27;99303;-27
2024/01/18 05:35:25;;;;;;;0.00;0.00;;;;;;;-1.22;90.93;99826.97;5093604;27;97350;-28
2024/01/18 05:37:51;;;;;;;0.10;0.10;;;;;;;-1.24;90.64;99826.16;5093498;27;96542;-27
2024/01/18 05:40:17;;;;;;;0.00;0.00;;;;;;;-1.33;91.23;99833.50;5093905;27;101173;-27
2024/01/18 05:42:43;;;;;;;0.00;0.00;;;;;;;-1.34;91.35;99829.06;5093464;27;97299;-28
2024/01/18 05:45:08;;;;;;;0.35;0.30;;;;;;;-1.34;91.08;99823.75;5093209;27;99555;-27
2024/01/18 05:47:34;;;;;;;0.03;0.03;;;;;;;-1.37;91.06;99830.97;5092864;27;96433;-27
2024/01/18 05:50:00;;;;;;;0.25;0.25;;;;;;;-1.47;91.44;99817.09;5093399;27;96731;-26
2024/01/18 05:52:27;;;;;;;0.17;0.10;;;;;;;-1.34;91.77;99842.34;5092814;27;101253;-27
2024/01/18 05:54:52;;;;;;;1.55;0.80;;;;;;;-1.39;91.05;99838.09;5093067;27;99554;-27
2024/01/18 05:57:18;;;;;;;0.00;0.00;;;;;;;-1.45;91.41;99840.91;5093413;27;97097;-27
2024/01/18 05:59:43;;;;;;;0.00;0.00;;;;;;;-1.46;91.62;99840.06;5093427;27;96542;-28
2024/01/18 06:02:09;;;;;;;0.35;0.35;;;;;;;-1.37;91.45;99846.91;5092917;27;99777;-26
2024/01/18 06:04:35;;;;;;;0.10;0.10;;;;;;;-1.40;91.39;99860.28;5092817;27;98723;-26
2024/01/18 06:07:00;;;;;;;1.88;0.30;;;;;;;-1.48;91.31;99856.94;5093330;27;96602;-27
2024/01/18 06:09:25;;;;;;;0.00;0.00;;;;;;;-1.46;91.27;99861.31;5093274;27;96731;-26
2024/01/18 06:11:51;;;;;;;0.10;0.10;;;;;;;-1.48;90.88;99859.59;5092696;27;97393;-26
2024/01/18 06:14:16;;;;;;;0.47;0.38;;;;;;;-1.54;91.48;99868.63;5093146;27;97469;-27
2024/01/18 06:16:42;;;;;;;0.10;0.10;;;;;;;-1.51;90.77;99872.06;5093034;27;96552;-27
2024/01/18 06:19:07;;;;;;;0.00;0.00;;;;;;;-1.56;91.01;99871.31;5093114;27;96739;-26
2024/01/18 06:21:33;;;;;;;0.08;0.08;;;;;;;-1.58;91.01;99880.25;5092800;27;99398;-27
2024/01/18 06:23:58;;;;;;;0.05;0.05;;;;;;;-1.55;91.46;99883.69;5092855;27;99639;-27
2024/01/18 06:26:24;;;;;;;0.25;0.20;;;;;;;-1.58;91.07;99886.41;5093001;27;96555;-27
2024/01/18 06:28:49;;;;;;;0.00;0.00;;;;;;;-1.60;90.85;99890.88;5093462;27;96711;-27
2024/01/18 06:31:14;;;;;;;0.00;0.00;;;;;;;-1.67;91.61;99885.78;5093039;27;97327;-29
2024/01/18 06:33:40;;;;;;;0.22;0.20;;;;;;;-1.60;91.02;99893.53;5092680;27;99282;-27
2024/01/18 06:36:08;;;;;;;0.00;0.00;;;;;;;-1.64;91.23;99905.19;5073863;27;97565;-27
2024/01/18 06:38:34;;;;;;;0.00;0.00;;;;;;;-1.66;91.53;99900.84;5092901;27;96739;-27
2024/01/18 06:41:00;;;;;;;0.13;0.13;;;;;;;-1.64;91.39;99899.88;5092764;27;97400;-27
2024/01/18 06:43:26;;;;;;;0.00;0.00;;;;;;;-1.64;91.41;99909.63;5092909;27;97326;-27
2024/01/18 06:45:54;;;;;;;0.03;0.03;;;;;;;-1.72;91.41;99910.69;5092686;27;96577;-26
2024/01/18 06:48:23;;;;;;;0.00;0.00;;;;;;;-1.80;91.71;99915.31;5073825;27;96629;-26
2024/01/18 06:50:48;;;;;;;1.98;0.75;;;;;;;-1.74;91.28;99914.28;5074054;27;100814;-27
2024/01/18 06:53:14;;;;;;;0.00;0.00;;;;;;;-1.65;91.00;99919.34;5092688;27;97802;-27
2024/01/18 06:55:40;;;;;;;0.00;0.00;;;;;;;-1.72;90.99;99910.69;5092906;27;96538;-28
2024/01/18 06:58:05;;;;;;;0.00;0.00;;;;;;;-1.75;90.84;99929.34;5092608;27;96782;-27
2024/01/18 07:00:31;;;;;;;0.05;0.05;;;;;;;-1.74;91.19;99917.84;5092396;27;98763;-27
2024/01/18 07:02:57;;;;;;;0.00;0.00;;;;;;;-1.77;91.30;99941.78;5095477;27;99331;-26
2024/01/18 07:05:22;;;;;;;0.10;0.10;;;;;;;-1.76;90.86;99932.91;5095608;27;96783;-27
2024/01/18 07:07:47;;;;;;;0.05;0.03;;;;;;;-1.73;91.20;99954.06;5096289;27;96778;-26
2024/01/18 07:10:13;;;;;;;0.20;0.20;;;;;;;-1.80;90.65;99947.19;5095830;27;98498;-27
2024/01/18 07:12:38;;;;;;;0.28;0.20;;;;;;;-1.91;91.16;99946.56;5095949;27;97288;-26
2024/01/18 07:15:04;;;;;;;0.00;0.00;;;;;;;-1.87;91.20;99945.59;5095816;27;96511;-27
2024/01/18 07:17:29;;;;;;;0.10;0.10;;;;;;;-1.78;91.01;99952.47;5095801;27;96840;-27
2024/01/18 07:19:58;;;;;;;2.42;0.52;;;;;;;-1.78;90.96;99958.63;5095500;27;99408;-27
2024/01/18 07:22:25;;;;;;;0.00;0.00;;;;;;;-1.84;90.77;99957.91;5077083;27;101104;-27
2024/01/18 07:24:51;;;;;;;0.28;0.20;;;;;;;-1.90;90.84;99960.72;5076613;27;97459;-26
2024/01/18 07:27:16;;;;;;;0.00;0.00;;;;;;;-2.00;91.56;99955.66;5095732;27;96721;-26
2024/01/18 07:29:43;;;;;;;0.00;0.00;;;;;;;-1.88;91.03;99967.75;5095717;27;97941;-27
2024/01/18 07:32:11;;;;;;;0.00;0.00;;;;;;;-1.77;90.15;99975.41;5095327;27;97938;-26
2024/01/18 07:34:36;;;;;;;0.00;0.00;;;;;;;-1.83;90.48;99968.50;5076879;27;96600;-26
2024/01/18 07:37:02;;;;;;;0.00;0.00;;;;;;;-1.83;90.32;99984.41;5095824;27;96746;-27
2024/01/18 07:39:27;;;;;;;0.00;0.00;;;;;;;-1.93;90.65;99985.56;5076829;27;100859;-27
2024/01/18 07:41:53;;;;;;;0.28;0.22;;;;;;;-1.92;91.04;99985.50;5096169;27;97004;-26
2024/01/18 07:44:19;;;;;;;0.38;0.32;;;;;;;-1.95;91.03;99987.38;5076648;27;96663;-28
2024/01/18 07:46:44;;;;;;;0.00;0.00;;;;;;;-1.98;91.07;99982.13;5095213;27;96718;-27
2024/01/18 07:49:09;;;;;;;1.08;0.93;;;;;;;-1.92;90.95;99993.47;5094690;27;99286;-27
2024/01/18 07:51:35;;;;;;;0.15;0.15;;;;;;;-1.94;90.99;100010.34;5095013;27;97655;-27
2024/01/18 07:54:00;;;;;;;0.13;0.13;;;;;;;-2.03;91.40;100007.91;5095422;27;96582;-26
2024/01/18 07:56:27;;;;;;;0.40;0.35;;;;;;;-2.01;91.70;100008.75;5095106;27;102475;-27
2024/01/18 07:58:52;;;;;;;0.20;0.20;;;;;;;-2.11;91.82;100002.78;5076539;27;101091;-27
2024/01/18 08:01:19;;;;;;;0.10;0.10;;;;;;;-2.17;92.25;100000.25;5095024;27;101284;-27
2024/01/18 08:03:44;;;;;;;1.15;0.82;;;;;;;-2.04;92.22;100011.47;5076573;27;96662;-27
2024/01/18 08:06:11;;;;;;;0.15;0.15;;;;;;;-2.09;92.19;100013.38;5094772;27;96924;-27
2024/01/18 08:08:37;;;;;;;0.38;0.38;;;;;;;-2.08;92.24;100015.97;5076117;27;101005;-26
2024/01/18 08:11:03;;;;;;;0.03;0.03;;;;;;;-2.13;92.06;100018.72;5076186;27;101062;-26
2024/01/18 08:13:28;;;;;;;2.17;0.63;;;;;;;-2.04;92.31;100027.41;5092993;27;96635;-27
2024/01/18 08:15:56;;;;;;;1.23;0.90;;;;;;;-2.10;92.68;100027.53;5094620;27;96923;-28
2024/01/18 08:18:23;;;;;;;0.35;0.35;;;;;;;-2.10;92.79;100032.84;5094777;27;98036;-27
2024/01/18 08:20:50;;;;;;;0.00;0.00;;;;;;;-1.88;91.43;100039.41;5076049;27;101128;-27
2024/01/18 08:23:15;;;;;;;4.10;0.80;;;;;;;-1.97;91.91;100050.22;5076089;27;97937;-27
2024/01/18 08:25:40;;;;;;;1.65;0.98;;;;;;;-2.03;92.36;100047.69;5094908;27;96769;-26
2024/01/18 08:28:06;;;;;;;0.63;0.28;;;;;;;-1.99;92.25;100050.25;5094719;27;98065;-26
2024/01/18 08:30:31;;;;;;;0.45;0.45;;;;;;;-1.96;92.36;100057.25;5094930;27;97658;-27
2024/01/18 08:32:56;;;;;;;0.35;0.20;;;;;;;-1.95;92.54;100059.03;5094630;27;96513;-26
2024/01/18 08:35:22;;;;;;;0.00;0.00;;;;;;;-1.98;92.97;100064.38;5094868;27;96919;-27
2024/01/18 08:37:48;;;;;;;0.75;0.40;;;;;;;-1.99;93.01;100067.97;5094127;27;98121;-27
2024/01/18 08:40:14;;;;;;;0.00;0.00;;;;;;;-1.95;93.00;100080.25;5075768;27;100929;-27
2024/01/18 08:42:43;;;;;;;0.17;0.17;;;;;;;-2.00;93.27;100060.88;5075802;27;96635;-27
2024/01/18 08:45:09;;;;;;;0.00;0.00;;;;;;;-1.89;93.08;100073.91;5075802;27;97011;-26
2024/01/18 08:47:35;;;;;;;0.90;0.65;;;;;;;-1.84;93.30;100083.50;5094471;27;97645;-26
2024/01/18 08:50:00;;;;;;;0.00;0.00;;;;;;;-1.82;93.13;100086.13;5094423;27;97797;-27
2024/01/18 08:52:25;;;;;;;0.52;0.50;;;;;;;-1.75;93.14;100090.41;5094043;27;96562;-26
2024/01/18 08:54:51;;;;;;;2.35;0.77;;;;;;;-1.71;93.02;100094.75;5094854;27;96765;-27
2024/01/18 08:57:17;;;;;;;0.08;0.08;;;;;;;-1.71;93.10;100094.75;5075433;27;100856;-28
2024/01/18 08:59:43;;;;;;;0.05;0.05;;;;;;;-1.68;93.25;100091.13;5094103;27;97779;-26
2024/01/18 09:02:09;;;;;;;0.00;0.00;;;;;;;-1.58;93.13;100103.28;5075055;27;97538;-26
2024/01/18 09:04:34;;;;;;;0.00;0.00;;;;;;;-1.51;92.83;100104.88;5093434;27;96875;-27
2024/01/18 09:07:00;;;;;;;0.05;0.05;;;;;;;-1.39;92.65;100116.97;5093946;27;99293;-27
2024/01/18 09:09:25;;;;;;;0.03;0.03;;;;;;;-1.34;92.32;100110.63;5094194;27;97797;-26
2024/01/18 09:11:52;;;;;;;0.20;0.20;;;;;;;-1.26;92.43;100112.22;5093901;27;96659;-26
2024/01/18 09:14:17;;;;;;;0.75;0.60;;;;;;;-1.24;92.75;100110.41;5093649;27;96835;-26
2024/01/18 09:16:42;;;;;;;0.10;0.10;;;;;;;-1.04;92.76;100116.09;5094015;27;97871;-28
2024/01/18 09:19:09;;;;;;;0.25;0.20;;;;;;;-0.87;92.18;100113.00;5094351;27;98274;-26
2024/01/18 09:21:40;;;;;;;0.35;0.08;;;;;;;-0.74;92.16;100130.38;5093849;27;96659;-26
2024/01/18 09:24:05;;;;;;;1.50;0.50;;;;;;;-0.65;92.26;100131.88;5074849;27;96704;-27
2024/01/18 09:26:30;;;;;;;0.13;0.13;;;;;;;-0.58;92.35;100135.25;5093290;27;97394;-27
2024/01/18 09:28:56;;;;;;;0.63;0.55;;;;;;;-0.50;92.53;100152.75;5093501;27;97857;-27
2024/01/18 09:31:22;;;;;;;3.40;0.93;;;;;;;-0.36;92.36;100152.34;5093671;27;96553;-28
2024/01/18 09:33:47;;;;;;;0.25;0.25;;;;;;;-0.37;92.06;100155.94;5093649;27;96835;-27
2024/01/18 09:36:12;;;;;;;0.10;0.10;;;;;;;-0.27;91.20;100162.75;5093636;27;97928;-27
2024/01/18 09:38:38;;;;;;;0.00;0.00;;;;;;;-0.15;91.64;100158.00;5093414;27;99146;-27
2024/01/18 09:41:07;;;;;;;0.22;0.13;;;;;;;0.03;91.84;100162.78;5093700;27;100215;-26
2024/01/18 09:43:37;;;;;;;0.65;0.32;;;;;;;0.33;91.44;100190.28;5075229;27;96928;-27
2024/01/18 09:46:07;;;;;;;0.40;0.40;;;;;;;0.49;90.40;100216.47;5074814;27;101248;-26
2024/01/18 09:48:34;;;;;;;1.50;0.15;;;;;;;0.51;90.98;100225.28;5074809;27;101368;-26
2024/01/18 09:51:00;;;;;;;0.03;0.03;;;;;;;0.60;92.32;100251.66;5074398;27;97299;-26
2024/01/18 09:53:27;;;;;;;0.00;0.00;;;;;;;0.46;94.90;100252.06;5074337;27;96799;-26
2024/01/18 09:55:53;;;;;;;0.00;0.00;;;;;;;0.37;96.47;100261.19;5074528;27;101191;-27
2024/01/18 09:58:19;;;;;;;0.00;0.00;;;;;;;0.37;97.00;100265.66;5093285;27;97326;-27
2024/01/18 10:00:54;;;;;;;0.00;0.00;;;;;;;0.30;97.55;100262.28;5074658;27;96571;-26
2024/01/18 10:03:19;;;;;;;0.00;0.00;;;;;;;0.31;97.66;100256.06;5093206;27;96666;-26
2024/01/18 10:05:46;;;;;;;0.00;0.00;;;;;;;0.35;98.14;100240.84;5092439;27;98042;-26
2024/01/18 10:08:12;;;;;;;0.00;0.00;;;;;;;0.45;97.90;100247.63;5075020;27;101019;-26
2024/01/18 10:10:37;;;;;;;0.00;0.00;;;;;;;0.63;96.86;100252.44;5092934;27;96648;-28
2024/01/18 10:13:03;;;;;;;0.00;0.00;;;;;;;0.68;97.21;100256.75;5093527;27;96795;-27
2024/01/18 10:15:33;;;;;;;0.00;0.00;;;;;;;0.76;96.17;100265.38;5074046;27;100773;-26
2024/01/18 10:18:04;;;;;;;0.00;0.00;;;;;;;0.79;96.42;100266.16;5074374;27;100756;-27
2024/01/18 10:20:29;;;;;;;0.17;0.10;;;;;;;0.92;96.01;100281.78;5074466;27;96681;-27
2024/01/18 10:22:55;;;;;;;0.10;0.10;;;;;;;0.95;95.90;100271.88;5092863;27;96785;-27
2024/01/18 10:25:28;;;;;;;0.10;0.10;;;;;;;1.01;95.68;100270.81;5092785;27;99870;-28
2024/01/18 10:27:55;;;;;;;0.15;0.10;;;;;;;1.02;95.14;100275.22;5074352;27;100837;-27
2024/01/18 10:30:20;;;;;;;0.00;0.00;;;;;;;1.01;94.72;100289.50;5074407;27;96637;-27
2024/01/18 10:32:46;;;;;;;0.47;0.22;;;;;;;0.95;93.99;100284.34;5093465;27;96798;-28
2024/01/18 10:35:24;;;;;;;0.00;0.00;;;;;;;1.15;93.92;100287.25;5092891;27;98992;-27
2024/01/18 10:38:06;;;;;;;0.00;0.00;;;;;;;1.31;94.64;100286.75;5096309;27;99185;-27
2024/01/18 10:40:38;;;;;;;0.08;0.08;;;;;;;1.48;94.49;100282.63;5095917;27;96480;-27
2024/01/18 10:43:04;;;;;;;0.47;0.47;;;;;;;1.83;94.66;100290.34;5077775;27;97060;-26
2024/01/18 10:45:31;;;;;;;0.00;0.00;;;;;;;2.06;93.86;100289.53;5077502;27;100956;-27
2024/01/18 10:47:58;;;;;;;0.03;0.03;;;;;;;2.18;93.56;100290.91;5077316;27;100994;-26
2024/01/18 10:50:24;;;;;;;0.20;0.20;;;;;;;2.37;93.14;100294.66;5077647;27;96551;-27
2024/01/18 10:52:51;;;;;;;0.85;0.30;;;;;;;2.44;92.90;100273.91;5076717;27;96907;-27
2024/01/18 10:55:17;;;;;;;0.57;0.55;;;;;;;2.74;92.57;100302.16;5076140;27;101475;-27
2024/01/18 10:57:43;;;;;;;0.38;0.38;;;;;;;2.84;91.35;100294.66;5077471;27;100835;-29
2024/01/18 11:00:08;;;;;;;0.63;0.20;;;;;;;2.97;91.14;100298.59;5096038;27;96568;-30
2024/01/18 11:02:39;;;;;;;0.30;0.30;;;;;;;3.08;90.96;100305.34;5095175;27;96850;-29
2024/01/18 11:05:08;;;;;;;1.07;0.13;;;;;;;3.23;90.99;100314.56;5075821;27;100891;-29
2024/01/18 11:07:34;;;;;;;0.30;0.25;;;;;;;3.24;89.96;100313.59;5096094;27;97314;-29
2024/01/18 11:10:00;;;;;;;0.00;0.00;;;;;;;3.42;90.27;100312.88;5076615;27;96871;-27
2024/01/18 11:12:26;;;;;;;0.55;0.28;;;;;;;3.52;89.98;100319.59;5077272;27;96739;-27
2024/01/18 11:14:52;;;;;;;0.00;0.00;;;;;;;3.72;89.49;100325.91;5077177;27;101031;-26
2024/01/18 11:17:17;;;;;;;0.05;0.05;;;;;;;3.79;88.64;100330.97;5076859;27;100758;-27
2024/01/18 11:19:44;;;;;;;1.05;0.35;;;;;;;3.91;88.41;100334.06;5095522;27;97367;-27
2024/01/18 11:22:24;;;;;;;0.00;0.00;;;;;;;4.03;88.19;100330.88;5077259;27;96889;-27
2024/01/18 11:24:50;;;;;;;0.00;0.00;;;;;;;4.13;88.25;100329.53;5094786;27;99663;-27
2024/01/18 11:27:27;;;;;;;0.00;0.00;;;;;;;4.26;87.59;100345.94;5095711;27;98273;-27